createdAt,value
2022-08-22T19:09:01.040Z,24.25
2022-08-22T19:10:01.005Z,24.19
2022-08-22T19:12:05.428Z,24.19
2022-08-22T19:13:05.484Z,24.10
2022-08-22T19:14:05.371Z,24.01
2022-08-22T19:15:05.355Z,24.10
2022-08-22T19:16:05.337Z,24.06
2022-08-22T19:17:05.318Z,24.04
2022-08-22T19:18:05.300Z,24.07
2022-08-22T19:19:05.282Z,24.06
2022-08-22T19:20:05.264Z,24.00
2022-08-22T19:21:05.263Z,24.03
2022-08-22T19:22:05.230Z,24.01
2022-08-22T19:23:05.220Z,23.97
2022-08-22T19:24:05.194Z,24.07
2022-08-22T19:25:05.177Z,24.04
2022-08-22T19:26:05.166Z,24.04
2022-08-22T19:27:05.166Z,24.04
2022-08-22T19:28:05.145Z,24.11
2022-08-22T19:29:10.122Z,24.07
2022-08-22T19:30:05.107Z,24.01
2022-08-22T19:31:05.087Z,24.06
2022-08-22T19:32:05.800Z,24.03
2022-08-22T19:33:05.085Z,24.08
2022-08-22T19:34:05.056Z,24.06
2022-08-22T19:35:05.021Z,24.15
2022-08-22T19:36:05.014Z,24.21
2022-08-22T19:37:04.992Z,24.11
2022-08-22T19:38:05.007Z,24.16
2022-08-22T19:39:04.972Z,24.21
2022-08-22T19:40:05.219Z,24.34
2022-08-22T19:41:04.939Z,24.31
2022-08-22T19:42:04.943Z,24.28
2022-08-22T19:43:04.930Z,24.26
2022-08-22T19:44:04.953Z,24.34
2022-08-22T19:45:04.866Z,24.37
2022-08-22T19:46:04.862Z,24.33
2022-08-22T19:47:04.842Z,24.33
2022-08-22T19:48:04.878Z,24.33
2022-08-22T19:49:04.836Z,24.37
2022-08-22T19:50:05.674Z,24.38
2022-08-22T19:51:04.775Z,24.41
2022-08-22T19:52:04.807Z,24.38
2022-08-22T19:53:04.767Z,24.37
2022-08-22T19:54:04.763Z,24.37
2022-08-22T19:55:04.762Z,24.40
2022-08-22T19:56:04.721Z,24.40
2022-08-22T19:57:04.714Z,24.37
2022-08-22T19:58:04.718Z,24.33
2022-08-22T19:59:04.689Z,24.33
2022-08-22T20:00:04.684Z,24.28
2022-08-22T20:01:04.685Z,24.23
2022-08-22T20:02:04.633Z,24.23
2022-08-22T20:03:04.627Z,24.16
2022-08-22T20:04:04.608Z,24.21
2022-08-22T20:05:04.620Z,24.19
2022-08-22T20:06:05.967Z,24.03
2022-08-22T20:07:04.582Z,24.01
2022-08-22T20:08:04.553Z,24.03
2022-08-22T20:09:04.569Z,24.06
2022-08-22T20:10:04.528Z,24.04
2022-08-22T20:11:04.537Z,23.98
2022-08-22T20:12:04.492Z,24.07
2022-08-22T20:13:04.494Z,24.06
2022-08-22T20:14:04.464Z,24.01
2022-08-22T20:15:04.452Z,23.97
2022-08-22T20:16:04.435Z,24.08
2022-08-22T20:17:04.432Z,23.98
2022-08-22T20:18:12.130Z,23.96
2022-08-22T20:19:09.239Z,23.98
